Time;durP1;ratioP1;P1;durP2;ratioP2;P2;SDS_P1;SDS_P2;PMS_P1;PMS_P2;Temp;Humidity;BMP_temperature;BMP_pressure;BME280_temperature;BME280_humidity;BME280_pressure;Samples;Min_cycle;Max_cycle;Signal;HPM_P1;HPM_P2
2022/05/05 00:01:36;;;;;;;;;;;;;;;17.27;87.52;99182.66;5061327;28;19924;-37
2022/05/05 00:04:02;;;;;;;;;;;;;;;17.67;84.61;99190.78;5064329;28;19924;-37
2022/05/05 00:06:27;;;;;;;;;;;;;;;17.74;83.88;99192.09;5062848;28;19931;-38
2022/05/05 00:08:53;;;;;;;;;;;;;;;17.66;84.07;99187.34;5064458;28;19923;-38
2022/05/05 00:16:46;;;;;;;;;;;;;;;17.34;88.91;99186.59;5062241;28;20736;-37
2022/05/05 00:19:11;;;;;;;;;;;;;;;17.32;89.02;99184.06;5066838;28;19943;-37
2022/05/05 00:21:38;;;;;;;;;;;;;;;17.44;87.75;99179.91;5062967;28;20090;-37
2022/05/05 00:24:04;;;;;;;;;;;;;;;17.58;86.39;99183.50;5060818;28;20018;-37
2022/05/05 00:26:29;;;;;;;;;;;;;;;17.18;88.25;99177.97;5064079;28;19934;-37
2022/05/05 00:28:54;;;;;;;;;;;;;;;16.55;91.88;99182.22;5063309;28;19920;-37
2022/05/05 00:31:20;;;;;;;;;;;;;;;16.66;94.53;99185.09;5064375;28;19920;-38
2022/05/05 00:33:45;;;;;;;;;;;;;;;16.66;92.56;99190.28;5062609;28;19927;-37
2022/05/05 00:36:10;;;;;;;;;;;;;;;16.68;92.21;99183.25;5062089;28;19927;-37
2022/05/05 00:38:35;;;;;;;;;;;;;;;17.02;91.66;99183.19;5061216;28;19952;-38
2022/05/05 00:41:00;;;;;;;;;;;;;;;16.99;90.68;99185.94;5062982;28;20004;-38
2022/05/05 00:43:26;;;;;;;;;;;;;;;17.02;91.53;99185.81;5060657;28;19920;-38
2022/05/05 00:45:51;;;;;;;;;;;;;;;16.96;92.33;99186.97;5059624;28;20436;-38
2022/05/05 00:48:17;;;;;;;;;;;;;;;16.76;93.90;99187.19;5062449;28;20026;-38
2022/05/05 00:50:42;;;;;;;;;;;;;;;16.05;96.35;99190.91;5063141;28;19963;-38
2022/05/05 00:53:07;;;;;;;;;;;;;;;16.62;96.82;99188.75;5064949;28;19927;-37
2022/05/05 00:55:33;;;;;;;;;;;;;;;17.10;93.83;99176.63;5061620;28;19924;-39
2022/05/05 00:57:59;;;;;;;;;;;;;;;17.18;93.18;99177.97;5061632;28;19920;-38
2022/05/05 01:00:24;;;;;;;;;;;;;;;17.33;92.64;99185.75;5062823;28;19989;-38
2022/05/05 01:02:49;;;;;;;;;;;;;;;17.40;91.47;99186.22;5063627;28;19920;-37
2022/05/05 01:05:15;;;;;;;;;;;;;;;17.56;90.91;99183.56;5059040;28;20009;-38
2022/05/05 01:07:40;;;;;;;;;;;;;;;17.29;91.64;99186.03;5062936;28;19967;-38
2022/05/05 01:10:06;;;;;;;;;;;;;;;17.28;91.77;99184.31;5060536;28;19946;-37
2022/05/05 01:12:33;;;;;;;;;;;;;;;17.31;92.14;99181.53;5061200;28;19963;-38
2022/05/05 01:14:59;;;;;;;;;;;;;;;17.69;90.05;99181.09;5063344;28;19921;-38
2022/05/05 01:17:25;;;;;;;;;;;;;;;17.58;89.92;99186.09;5057096;28;19926;-38
2022/05/05 01:19:50;;;;;;;;;;;;;;;17.45;90.83;99184.22;5064018;28;19920;-38
2022/05/05 01:22:17;;;;;;;;;;;;;;;16.82;93.23;99179.91;5060975;28;20526;-37
2022/05/05 01:30:10;;;;;;;;;;;;;;;16.66;93.87;99185.09;5061988;28;20677;-38
2022/05/05 01:32:36;;;;;;;;;;;;;;;17.05;93.87;99183.00;5059365;28;19928;-37
2022/05/05 01:35:01;;;;;;;;;;;;;;;17.14;92.88;99183.34;5062839;28;20435;-38
2022/05/05 01:37:27;;;;;;;;;;;;;;;17.24;92.39;99185.41;5063437;28;20466;-38
2022/05/05 01:39:52;;;;;;;;;;;;;;;17.00;93.98;99193.69;5062238;28;19920;-37
2022/05/05 01:42:17;;;;;;;;;;;;;;;16.95;94.42;99190.50;5059879;28;19954;-38
2022/05/05 01:44:43;;;;;;;;;;;;;;;16.86;94.62;99193.59;5058600;28;19915;-38
2022/05/05 01:47:08;;;;;;;;;;;;;;;17.10;93.87;99194.84;5060088;28;19935;-38
2022/05/05 01:49:33;;;;;;;;;;;;;;;17.35;93.50;99196.06;5059803;28;19920;-38
2022/05/05 01:51:58;;;;;;;;;;;;;;;17.30;93.15;99200.69;5058729;28;19924;-38
2022/05/05 01:54:24;;;;;;;;;;;;;;;17.20;92.66;99205.59;5063106;28;19924;-38
2022/05/05 01:56:49;;;;;;;;;;;;;;;17.19;92.07;99205.66;5058826;28;19920;-45
2022/05/05 01:59:14;;;;;;;;;;;;;;;17.16;93.06;99214.47;5063996;28;20034;-38
2022/05/05 02:01:39;;;;;;;;;;;;;;;17.18;93.07;99217.00;5059995;28;20677;-38
2022/05/05 02:04:04;;;;;;;;;;;;;;;17.06;94.21;99219.38;5059208;28;19921;-37
2022/05/05 02:06:30;;;;;;;;;;;;;;;16.82;95.62;99225.91;5060978;28;19976;-38
2022/05/05 02:08:57;;;;;;;;;;;;;;;16.85;95.46;99215.31;5062339;28;19974;-37
2022/05/05 02:11:22;;;;;;;;;;;;;;;16.36;99.31;99220.53;5059366;28;19958;-37
2022/05/05 02:13:47;;;;;;;;;;;;;;;17.15;93.79;99204.97;5063898;28;19916;-38
2022/05/05 02:16:13;;;;;;;;;;;;;;;17.32;91.71;99209.25;5062463;28;19916;-38
2022/05/05 02:18:38;;;;;;;;;;;;;;;17.39;91.18;99215.78;5061258;28;19932;-37
2022/05/05 02:21:03;;;;;;;;;;;;;;;17.19;90.66;99210.88;5061375;28;19972;-38
2022/05/05 02:23:28;;;;;;;;;;;;;;;17.08;92.04;99227.06;5058744;28;20027;-38
2022/05/05 02:25:53;;;;;;;;;;;;;;;17.11;93.16;99232.97;5059720;28;19962;-38
2022/05/05 02:28:19;;;;;;;;;;;;;;;17.25;91.39;99218.34;5061302;28;20353;-38
2022/05/05 02:30:44;;;;;;;;;;;;;;;17.18;92.83;99227.41;5063756;28;20875;-37
2022/05/05 02:33:09;;;;;;;;;;;;;;;17.13;93.08;99223.31;5059355;28;19920;-37
2022/05/05 02:35:34;;;;;;;;;;;;;;;17.17;93.01;99228.31;5061279;28;19927;-37
2022/05/05 02:40:44;;;;;;;;;;;;;;;17.12;94.30;99226.81;5063300;28;19935;-37
2022/05/05 02:43:09;;;;;;;;;;;;;;;17.45;92.58;99228.47;5057637;28;19920;-37
2022/05/05 02:45:34;;;;;;;;;;;;;;;17.18;92.05;99219.63;5063749;28;20011;-38
2022/05/05 02:47:59;;;;;;;;;;;;;;;17.34;91.80;99223.03;5062856;28;20693;-37
2022/05/05 02:50:25;;;;;;;;;;;;;;;17.20;91.69;99222.97;5057407;28;19916;-37
2022/05/05 02:52:50;;;;;;;;;;;;;;;17.42;89.83;99220.81;5059358;28;20414;-38
2022/05/05 02:55:15;;;;;;;;;;;;;;;17.40;89.76;99227.88;5061769;28;20339;-38
2022/05/05 02:57:41;;;;;;;;;;;;;;;17.48;89.50;99219.66;5061505;28;19959;-37
2022/05/05 03:00:07;;;;;;;;;;;;;;;17.30;90.12;99222.34;5063106;28;20579;-38
2022/05/05 03:02:32;;;;;;;;;;;;;;;17.42;90.11;99220.81;5065924;28;19985;-38
2022/05/05 03:04:58;;;;;;;;;;;;;;;17.25;90.65;99223.56;5065842;28;19924;-38
2022/05/05 03:07:23;;;;;;;;;;;;;;;16.64;94.83;99232.91;5063283;28;20695;-38
2022/05/05 03:09:48;;;;;;;;;;;;;;;16.86;96.62;99228.25;5066397;28;19927;-38
2022/05/05 03:12:13;;;;;;;;;;;;;;;17.22;94.30;99229.78;5062668;28;19925;-38
2022/05/05 03:14:39;;;;;;;;;;;;;;;17.50;91.72;99218.63;5064373;28;19928;-38
2022/05/05 03:17:04;;;;;;;;;;;;;;;17.13;92.32;99220.69;5063908;28;19921;-38
2022/05/05 03:19:29;;;;;;;;;;;;;;;16.79;96.33;99219.09;5063877;28;19926;-37
2022/05/05 03:21:55;;;;;;;;;;;;;;;17.10;94.84;99217.41;5062869;28;20771;-37
2022/05/05 03:24:20;;;;;;;;;;;;;;;16.39;96.34;99228.97;5066255;28;20415;-37
2022/05/05 03:26:45;;;;;;;;;;;;;;;16.14;100.00;99232.00;5065849;28;19931;-38
2022/05/05 03:29:10;;;;;;;;;;;;;;;16.60;98.91;99226.16;5064109;28;19920;-37
2022/05/05 03:31:36;;;;;;;;;;;;;;;16.78;96.77;99219.97;5065310;28;19928;-38
2022/05/05 03:34:02;;;;;;;;;;;;;;;16.86;95.09;99227.44;5064022;28;19973;-37
2022/05/05 03:36:27;;;;;;;;;;;;;;;16.91;95.02;99231.44;5066054;28;19916;-38
2022/05/05 03:38:54;;;;;;;;;;;;;;;17.10;93.38;99226.06;5066351;28;19997;-37
2022/05/05 03:41:19;;;;;;;;;;;;;;;16.86;93.89;99232.63;5064438;28;20313;-38
2022/05/05 03:43:44;;;;;;;;;;;;;;;16.72;95.89;99231.56;5065951;28;19920;-37
2022/05/05 03:46:09;;;;;;;;;;;;;;;16.64;96.17;99233.72;5061178;28;19927;-38
2022/05/05 03:48:35;;;;;;;;;;;;;;;16.47;97.12;99239.84;5064444;28;20028;-37
2022/05/05 03:51:00;;;;;;;;;;;;;;;16.60;96.28;99237.41;5064728;28;19920;-38
2022/05/05 03:53:25;;;;;;;;;;;;;;;16.57;96.19;99239.34;5062978;28;19920;-37
2022/05/05 03:55:50;;;;;;;;;;;;;;;16.54;95.66;99240.34;5065193;28;20812;-37
2022/05/05 03:58:16;;;;;;;;;;;;;;;16.74;96.09;99244.50;5066226;28;19923;-37
2022/05/05 04:00:41;;;;;;;;;;;;;;;16.64;95.68;99246.72;5062216;28;20426;-38
2022/05/05 04:05:50;;;;;;;;;;;;;;;16.27;98.20;99255.63;5066124;28;19973;-38
2022/05/05 04:08:15;;;;;;;;;;;;;;;16.21;98.14;99254.16;5065413;28;19920;-37
2022/05/05 04:10:40;;;;;;;;;;;;;;;16.29;97.98;99249.41;5065967;28;19934;-37
2022/05/05 04:13:05;;;;;;;;;;;;;;;16.09;98.41;99262.59;5064303;28;19952;-38
2022/05/05 04:15:33;;;;;;;;;;;;;;;16.27;97.97;99253.84;5065475;28;19966;-38
2022/05/05 04:17:59;;;;;;;;;;;;;;;16.15;96.64;99262.28;5063393;28;19927;-38
2022/05/05 04:20:24;;;;;;;;;;;;;;;16.26;97.32;99257.38;5067477;28;19912;-37
2022/05/05 04:22:49;;;;;;;;;;;;;;;16.35;96.09;99263.00;5063775;28;19920;-37
2022/05/05 04:25:16;;;;;;;;;;;;;;;16.40;95.46;99261.88;5064685;28;20480;-38
2022/05/05 04:27:41;;;;;;;;;;;;;;;16.36;95.88;99267.31;5064803;28;19927;-38
2022/05/05 04:30:07;;;;;;;;;;;;;;;16.26;96.33;99265.19;5064107;28;19932;-38
2022/05/05 04:32:32;;;;;;;;;;;;;;;16.33;98.37;99275.25;5062847;28;19924;-38
2022/05/05 04:34:58;;;;;;;;;;;;;;;16.25;98.23;99279.06;5060900;28;19921;-38
2022/05/05 04:37:23;;;;;;;;;;;;;;;16.44;98.04;99272.94;5061211;28;19926;-38
2022/05/05 04:39:48;;;;;;;;;;;;;;;16.30;97.37;99276.25;5064171;28;20323;-38
2022/05/05 04:42:14;;;;;;;;;;;;;;;16.25;98.65;99278.25;5062972;28;20359;-37
2022/05/05 04:44:39;;;;;;;;;;;;;;;16.44;97.83;99272.94;5061642;28;19931;-38
2022/05/05 04:47:04;;;;;;;;;;;;;;;16.55;97.78;99275.81;5059726;28;20664;-37
2022/05/05 04:49:31;;;;;;;;;;;;;;;16.89;95.21;99276.66;5063600;28;20309;-38
2022/05/05 04:51:56;;;;;;;;;;;;;;;16.68;95.18;99279.47;5061343;28;19968;-38
2022/05/05 04:54:21;;;;;;;;;;;;;;;16.96;94.85;99275.41;5064119;28;19920;-38
2022/05/05 04:56:46;;;;;;;;;;;;;;;17.18;93.79;99279.47;5060966;28;19920;-38
2022/05/05 04:59:12;;;;;;;;;;;;;;;17.12;93.97;99281.47;5064049;28;19927;-38
2022/05/05 05:01:37;;;;;;;;;;;;;;;17.11;94.39;99279.81;5059824;28;19921;-38
2022/05/05 05:04:02;;;;;;;;;;;;;;;17.50;92.93;99281.13;5064666;28;20028;-37
2022/05/05 05:06:28;;;;;;;;;;;;;;;17.48;91.98;99284.75;5064702;28;19927;-38
2022/05/05 05:08:53;;;;;;;;;;;;;;;17.46;90.32;99279.59;5063471;28;19924;-38
2022/05/05 05:11:18;;;;;;;;;;;;;;;17.17;90.74;99278.63;5061552;28;20039;-37
2022/05/05 05:13:43;;;;;;;;;;;;;;;17.33;92.40;99291.63;5065370;28;19926;-38
2022/05/05 05:16:08;;;;;;;;;;;;;;;17.69;92.00;99290.50;5064294;28;19920;-38
2022/05/05 05:18:34;;;;;;;;;;;;;;;18.02;91.40;99289.50;5064005;28;19921;-37
2022/05/05 05:20:59;;;;;;;;;;;;;;;17.97;91.06;99290.66;5064124;28;19920;-38
2022/05/05 05:23:24;;;;;;;;;;;;;;;18.23;91.16;99301.31;5066177;28;19967;-38
2022/05/05 05:25:50;;;;;;;;;;;;;;;18.04;88.99;99300.69;5061147;28;19924;-37
2022/05/05 05:28:15;;;;;;;;;;;;;;;17.89;86.40;99302.44;5061534;28;19923;-38
2022/05/05 05:30:40;;;;;;;;;;;;;;;18.14;88.10;99304.47;5063514;28;19972;-38
2022/05/05 05:33:05;;;;;;;;;;;;;;;18.44;87.89;99316.63;5060357;28;19924;-38
2022/05/05 05:35:30;;;;;;;;;;;;;;;18.52;85.83;99304.81;5060355;28;19991;-38
2022/05/05 05:37:56;;;;;;;;;;;;;;;19.06;85.11;99301.53;5062943;28;20775;-38
2022/05/05 05:40:21;;;;;;;;;;;;;;;18.93;84.23;99306.69;5061725;28;19967;-38
2022/05/05 05:42:46;;;;;;;;;;;;;;;19.29;83.49;99309.72;5062509;28;19974;-38
2022/05/05 05:45:11;;;;;;;;;;;;;;;19.18;80.36;99316.47;5063826;28;19931;-38
2022/05/05 05:47:37;;;;;;;;;;;;;;;19.34;84.19;99321.56;5061055;28;19957;-38
2022/05/05 05:50:02;;;;;;;;;;;;;;;19.54;81.70;99317.66;5065257;28;20027;-38
2022/05/05 05:52:27;;;;;;;;;;;;;;;19.50;82.19;99321.44;5062254;28;19969;-38
2022/05/05 05:54:52;;;;;;;;;;;;;;;19.44;81.75;99322.63;5062737;28;19963;-38
2022/05/05 05:57:18;;;;;;;;;;;;;;;19.67;80.42;99327.34;5058621;28;20204;-38
2022/05/05 05:59:43;;;;;;;;;;;;;;;19.74;79.92;99323.44;5061249;28;20086;-38
2022/05/05 06:04:52;;;;;;;;;;;;;;;20.16;79.28;99329.38;5063485;28;20792;-38
2022/05/05 06:07:18;;;;;;;;;;;;;;;19.80;72.87;99328.25;5062898;28;19932;-38
2022/05/05 06:09:43;;;;;;;;;;;;;;;19.60;70.73;99327.72;5062660;28;19950;-38
2022/05/05 06:12:09;;;;;;;;;;;;;;;18.48;76.31;99341.59;5063010;28;19993;-38
2022/05/05 06:14:34;;;;;;;;;;;;;;;18.79;76.54;99333.66;5064013;28;19948;-38
2022/05/05 06:16:59;;;;;;;;;;;;;;;18.71;78.47;99333.22;5063766;28;19955;-38
2022/05/05 06:19:24;;;;;;;;;;;;;;;18.43;80.07;99343.59;5060539;28;19928;-38
2022/05/05 06:21:50;;;;;;;;;;;;;;;19.02;74.92;99336.59;5062334;28;19920;-38
2022/05/05 06:24:15;;;;;;;;;;;;;;;18.22;77.54;99348.31;5061992;28;20016;-38
2022/05/05 06:26:40;;;;;;;;;;;;;;;18.09;79.96;99348.19;5063598;28;19985;-38
2022/05/05 06:29:06;;;;;;;;;;;;;;;19.35;73.74;99338.06;5064712;28;19919;-38
2022/05/05 06:31:31;;;;;;;;;;;;;;;19.96;70.83;99339.38;5062664;28;19952;-38
2022/05/05 06:33:56;;;;;;;;;;;;;;;20.35;66.11;99340.31;5063578;28;19927;-38
2022/05/05 06:36:21;;;;;;;;;;;;;;;18.98;75.92;99345.56;5063242;28;19916;-38
2022/05/05 06:38:47;;;;;;;;;;;;;;;19.56;73.20;99349.75;5064776;28;20182;-38
2022/05/05 06:41:13;;;;;;;;;;;;;;;20.64;66.68;99346.22;5063906;28;21027;-38
2022/05/05 06:43:38;;;;;;;;;;;;;;;20.29;70.99;99350.34;5067963;28;20381;-38
2022/05/05 06:46:04;;;;;;;;;;;;;;;20.25;71.05;99352.31;5065693;28;19927;-38
2022/05/05 06:48:29;;;;;;;;;;;;;;;20.39;68.98;99352.25;5065545;28;19923;-38
2022/05/05 06:50:54;;;;;;;;;;;;;;;20.58;70.07;99351.03;5066418;28;19920;-38
2022/05/05 06:53:19;;;;;;;;;;;;;;;20.32;68.50;99350.97;5068314;28;19952;-38
2022/05/05 06:55:45;;;;;;;;;;;;;;;20.74;68.50;99351.66;5064608;28;19959;-38
2022/05/05 06:58:10;;;;;;;;;;;;;;;18.99;73.78;99362.91;5066785;28;19956;-38
2022/05/05 07:03:19;;;;;;;;;;;;;;;21.52;64.96;99356.69;5064792;28;19931;-38
2022/05/05 07:05:45;;;;;;;;;;;;;;;21.35;65.62;99364.91;5063482;28;19924;-38
2022/05/05 07:08:10;;;;;;;;;;;;;;;21.80;64.14;99361.72;5062594;28;19980;-38
2022/05/05 07:10:53;;;;;;;;;;;;;;;21.48;61.30;99367.50;5064463;28;19927;-38
2022/05/05 07:13:24;;;;;;;;;;;;;;;20.40;68.97;99368.78;5062423;28;20026;-38
2022/05/05 07:15:50;;;;;;;;;;;;;;;20.41;68.15;99371.28;5065125;28;19959;-38
2022/05/05 07:18:15;;;;;;;;;;;;;;;20.86;63.00;99374.38;5063440;28;20031;-38
2022/05/05 07:20:40;;;;;;;;;;;;;;;21.68;63.33;99368.69;5065383;28;20570;-38
2022/05/05 07:23:07;;;;;;;;;;;;;;;22.61;57.65;99366.22;5066615;28;19917;-38
2022/05/05 07:25:32;;;;;;;;;;;;;;;21.18;61.92;99371.31;5062683;28;20010;-38
2022/05/05 07:27:57;;;;;;;;;;;;;;;21.06;64.01;99378.22;5063981;28;20380;-38
2022/05/05 07:30:23;;;;;;;;;;;;;;;20.95;64.09;99387.78;5061992;28;19927;-38
2022/05/05 07:32:49;;;;;;;;;;;;;;;19.89;65.06;99382.56;5064090;28;19924;-38
2022/05/05 07:35:14;;;;;;;;;;;;;;;20.22;67.03;99396.97;5063989;28;19916;-38
2022/05/05 07:37:39;;;;;;;;;;;;;;;20.31;69.95;99391.13;5064654;28;19920;-38
2022/05/05 07:40:05;;;;;;;;;;;;;;;20.40;66.82;99395.75;5065824;28;19920;-38
2022/05/05 07:42:31;;;;;;;;;;;;;;;20.08;69.23;99394.44;5066204;28;19924;-38
2022/05/05 07:44:56;;;;;;;;;;;;;;;19.13;71.36;99394.22;5062565;28;20757;-38
2022/05/05 07:47:21;;;;;;;;;;;;;;;20.41;65.78;99391.38;5060530;28;19962;-38
2022/05/05 07:49:46;;;;;;;;;;;;;;;19.61;77.33;99396.50;5065163;28;20250;-38
2022/05/05 07:52:12;;;;;;;;;;;;;;;19.79;73.54;99394.53;5062300;28;19924;-38
2022/05/05 07:54:43;;;;;;;;;;;;;;;19.62;65.43;99393.78;5062498;28;19928;-38
2022/05/05 07:57:09;;;;;;;;;;;;;;;20.47;66.58;99401.44;5064518;28;20011;-38
2022/05/05 07:59:34;;;;;;;;;;;;;;;19.50;67.01;99399.78;5057928;28;19924;-38
2022/05/05 08:02:00;;;;;;;;;;;;;;;20.12;66.15;99401.16;5060995;28;19924;-38
2022/05/05 08:04:25;;;;;;;;;;;;;;;19.78;61.78;99404.16;5063745;28;19924;-38
2022/05/05 08:06:51;;;;;;;;;;;;;;;20.63;60.31;99401.28;5060640;28;19982;-38
2022/05/05 08:09:16;;;;;;;;;;;;;;;21.87;49.83;99395.25;5062487;28;19920;-38
2022/05/05 08:11:42;;;;;;;;;;;;;;;20.78;58.57;99410.72;5064399;28;19979;-38
2022/05/05 08:14:08;;;;;;;;;;;;;;;20.13;68.97;99415.88;5060730;28;19947;-38
2022/05/05 08:16:33;;;;;;;;;;;;;;;20.46;70.84;99411.06;5062634;28;20432;-48
2022/05/05 08:18:58;;;;;;;;;;;;;;;22.30;62.48;99401.78;5061607;28;19924;-45
2022/05/05 08:21:23;;;;;;;;;;;;;;;22.74;55.83;99408.13;5066770;28;20114;-45
2022/05/05 08:28:27;;;;;;;;;;;;;;;22.16;61.06;99409.81;5065114;28;19924;-43
2022/05/05 08:29:18;;;;;;;;;;;;;;;22.44;56.01;99413.88;5060864;28;19935;-44
2022/05/05 08:31:43;;;;;;;;;;;;;;;21.27;60.28;99430.91;5063834;28;19916;-45
2022/05/05 08:34:08;;;;;;;;;;;;;;;22.98;51.70;99418.53;5066211;28;19931;-44
2022/05/05 08:36:34;;;;;;;;;;;;;;;21.95;53.97;99428.78;5062547;28;19920;-45
2022/05/05 08:38:59;;;;;;;;;;;;;;;21.97;56.22;99437.38;5066945;28;19916;-44
2022/05/05 08:41:24;;;;;;;;;;;;;;;22.75;51.10;99422.91;5061753;28;20480;-46
2022/05/05 08:43:49;;;;;;;;;;;;;;;23.33;47.11;99412.34;5061354;28;19928;-43
2022/05/05 08:46:15;;;;;;;;;;;;;;;22.41;50.88;99420.19;5062426;28;19927;-45
2022/05/05 08:48:40;;;;;;;;;;;;;;;22.76;53.07;99428.06;5045417;28;19962;-45
2022/05/05 08:51:06;;;;;;;;;;;;;;;23.63;50.24;99417.00;5061893;28;20366;-45
2022/05/05 08:53:35;;;;;;;;;;;;;;;22.77;51.88;99427.09;5061238;28;19990;-47
2022/05/05 08:56:00;;;;;;;;;;;;;;;22.72;49.75;99433.66;5063381;28;19956;-46
2022/05/05 08:58:26;;;;;;;;;;;;;;;22.03;54.13;99436.09;5064306;28;20082;-44
2022/05/05 09:00:54;;;;;;;;;;;;;;;22.97;51.63;99425.59;5063142;28;19927;-46
2022/05/05 09:03:19;;;;;;;;;;;;;;;22.68;53.73;99440.09;5060844;28;19935;-45
2022/05/05 09:05:44;;;;;;;;;;;;;;;22.36;58.71;99437.25;5062497;28;19966;-44
2022/05/05 09:08:11;;;;;;;;;;;;;;;23.28;54.40;99431.09;5063384;28;19916;-45
2022/05/05 09:10:45;;;;;;;;;;;;;;;22.01;56.38;99432.75;5061631;28;19921;-44
2022/05/05 09:13:11;;;;;;;;;;;;;;;22.50;58.48;99430.00;5075722;28;19959;-46
2022/05/05 09:15:36;;;;;;;;;;;;;;;23.60;50.52;99425.13;5061975;28;20440;-46
2022/05/05 09:18:13;;;;;;;;;;;;;;;22.71;48.88;99429.34;5059959;28;19981;-46
2022/05/05 09:20:39;;;;;;;;;;;;;;;23.59;50.22;99418.19;5063901;28;19970;-46
2022/05/05 09:23:04;;;;;;;;;;;;;;;23.61;49.78;99428.59;5064881;28;20014;-43
2022/05/05 09:25:46;;;;;;;;;;;;;;;23.46;50.48;99423.56;5059662;28;19956;-46
2022/05/05 09:28:17;;;;;;;;;;;;;;;23.46;50.87;99430.63;5063136;28;20019;-44
2022/05/05 09:30:48;;;;;;;;;;;;;;;22.63;53.76;99439.59;5064796;28;20278;-44
2022/05/05 09:33:17;;;;;;;;;;;;;;;23.11;53.73;99439.47;5062216;28;19948;-45
2022/05/05 09:35:43;;;;;;;;;;;;;;;24.60;50.08;99427.59;5061115;28;20021;-47
2022/05/05 09:38:08;;;;;;;;;;;;;;;23.98;49.32;99437.03;5061025;28;19978;-46
2022/05/05 09:40:34;;;;;;;;;;;;;;;23.16;54.01;99445.22;5061190;28;21001;-44
2022/05/05 09:43:01;;;;;;;;;;;;;;;22.90;57.14;99442.75;5061457;28;19979;-45
2022/05/05 09:45:30;;;;;;;;;;;;;;;24.14;51.82;99442.72;5062265;28;19924;-44
2022/05/05 09:47:57;;;;;;;;;;;;;;;24.27;48.24;99441.69;5065648;28;20846;-44
2022/05/05 09:50:23;;;;;;;;;;;;;;;23.45;52.92;99452.63;5061526;28;19920;-46
2022/05/05 09:58:21;;;;;;;;;;;;;;;23.79;49.68;99445.56;5063517;28;20789;-45
2022/05/05 10:00:49;;;;;;;;;;;;;;;23.91;49.06;99443.75;5062688;28;19956;-45
2022/05/05 10:06:20;;;;;;;;;;;;;;;24.47;50.39;99443.56;5060263;28;20039;-49
2022/05/05 10:08:46;;;;;;;;;;;;;;;25.25;48.60;99446.72;5059588;28;19919;-46
2022/05/05 10:11:14;;;;;;;;;;;;;;;25.22;49.31;99439.06;5061910;28;20357;-50
2022/05/05 10:13:39;;;;;;;;;;;;;;;23.76;53.39;99451.88;5061693;28;19931;-44
2022/05/05 10:16:05;;;;;;;;;;;;;;;23.59;50.74;99449.75;5057411;28;20289;-45
2022/05/05 10:18:38;;;;;;;;;;;;;;;24.62;51.45;99444.94;5060945;28;20593;-45
2022/05/05 10:21:07;;;;;;;;;;;;;;;24.22;50.03;99452.59;5061114;28;20448;-46
2022/05/05 10:23:33;;;;;;;;;;;;;;;25.52;48.11;99450.56;5062915;28;19920;-47
2022/05/05 10:25:58;;;;;;;;;;;;;;;23.98;51.31;99447.56;5061260;28;19920;-48
2022/05/05 10:28:36;;;;;;;;;;;;;;;24.28;53.38;99446.03;5060539;28;20033;-45
2022/05/05 10:31:01;;;;;;;;;;;;;;;25.45;46.56;99443.19;5062360;28;19969;-45
2022/05/05 10:33:46;;;;;;;;;;;;;;;26.54;44.02;99440.56;5061452;28;19925;-44
2022/05/05 10:36:21;;;;;;;;;;;;;;;26.05;48.49;99447.66;5062208;28;19932;-47
2022/05/05 10:38:49;;;;;;;;;;;;;;;25.65;47.46;99449.34;5061282;28;19927;-49
2022/05/05 10:41:35;;;;;;;;;;;;;;;24.46;53.76;99452.41;5063510;28;19920;-44
2022/05/05 10:44:26;;;;;;;;;;;;;;;26.08;46.73;99436.81;5050880;28;19930;-45
2022/05/05 10:46:52;;;;;;;;;;;;;;;24.52;50.33;99454.56;5061579;28;20557;-45
2022/05/05 10:49:30;;;;;;;;;;;;;;;23.77;53.03;99450.94;5061362;28;19924;-45
2022/05/05 10:52:13;;;;;;;;;;;;;;;22.61;54.59;99449.38;5060063;28;19927;-46
2022/05/05 10:54:39;;;;;;;;;;;;;;;24.12;47.91;99436.75;5063608;28;19990;-48
2022/05/05 10:57:24;;;;;;;;;;;;;;;22.66;51.83;99449.88;5060867;28;19927;-37
2022/05/05 11:00:08;;;;;;;;;;;;;;;24.14;49.18;99447.16;5062801;28;19925;-38
2022/05/05 11:02:33;;;;;;;;;;;;;;;24.61;49.87;99445.91;5058299;28;20950;-37
2022/05/05 11:05:17;;;;;;;;;;;;;;;25.51;41.41;99436.53;5060334;28;19928;-37
2022/05/05 11:07:43;;;;;;;;;;;;;;;27.42;39.51;99430.66;5062097;28;20914;-38
2022/05/05 11:10:08;;;;;;;;;;;;;;;26.69;39.79;99439.19;5061877;28;19924;-37
2022/05/05 11:12:34;;;;;;;;;;;;;;;25.36;43.69;99438.72;5061777;28;19920;-37
2022/05/05 11:23:24;;;;;;;;;;;;;;;27.13;42.25;99451.88;5064994;28;19942;-37
2022/05/05 11:25:50;;;;;;;;;;;;;;;27.88;40.87;99438.66;5064438;28;20550;-38
2022/05/05 11:28:16;;;;;;;;;;;;;;;28.45;36.75;99433.03;5065137;28;19922;-38
2022/05/05 11:30:41;;;;;;;;;;;;;;;27.67;39.61;99438.88;5064342;28;19920;-37
2022/05/05 11:33:07;;;;;;;;;;;;;;;28.09;39.10;99433.06;5063649;28;20377;-38
2022/05/05 11:35:33;;;;;;;;;;;;;;;26.32;45.28;99448.78;5066891;28;20073;-37
2022/05/05 11:37:58;;;;;;;;;;;;;;;25.58;47.16;99448.22;5066558;28;19928;-37
2022/05/05 11:40:23;;;;;;;;;;;;;;;28.25;42.61;99437.66;5065709;28;20002;-38
2022/05/05 11:45:37;;;;;;;;;;;;;;;29.44;38.15;99430.03;5059644;28;20022;-38
2022/05/05 11:48:16;;;;;;;;;;;;;;;28.46;37.58;99437.34;5060522;28;19924;-38
2022/05/05 11:50:44;;;;;;;;;;;;;;;28.87;36.73;99435.03;5029952;28;19966;-38
2022/05/05 11:53:17;;;;;;;;;;;;;;;28.49;39.12;99439.75;5062722;28;19951;-38
2022/05/05 11:55:44;;;;;;;;;;;;;;;26.11;39.41;99438.34;5061252;28;19946;-38
2022/05/05 12:01:36;;;;;;;;;;;;;;;28.89;38.77;99420.63;5061714;28;19924;-38
2022/05/05 12:03:58;;;;;;;;;;;;;;;26.50;38.81;99424.19;5061809;28;19926;-38
2022/05/05 12:06:24;;;;;;;;;;;;;;;28.40;39.03;99419.44;5058868;28;19924;-38
2022/05/05 12:08:49;;;;;;;;;;;;;;;26.36;37.90;99431.69;5061240;28;19962;-38
2022/05/05 12:11:14;;;;;;;;;;;;;;;25.83;39.61;99430.22;5062363;28;19920;-38
2022/05/05 12:13:39;;;;;;;;;;;;;;;26.86;39.61;99424.41;5059368;28;19927;-38
2022/05/05 12:16:05;;;;;;;;;;;;;;;25.45;41.20;99437.91;5063804;28;19922;-38
2022/05/05 12:18:30;;;;;;;;;;;;;;;27.39;39.58;99420.34;5064756;28;19916;-38
2022/05/05 12:20:57;;;;;;;;;;;;;;;28.18;40.57;99428.69;5064448;28;19926;-38
2022/05/05 12:23:23;;;;;;;;;;;;;;;29.13;37.59;99422.63;5066806;28;19916;-39
2022/05/05 12:25:48;;;;;;;;;;;;;;;30.52;35.25;99423.94;5065740;28;19916;-38
2022/05/05 12:28:14;;;;;;;;;;;;;;;30.70;34.99;99418.47;5065514;28;19916;-38
2022/05/05 12:30:42;;;;;;;;;;;;;;;30.55;36.71;99418.31;5067827;28;19947;-38
2022/05/05 12:33:08;;;;;;;;;;;;;;;27.42;36.91;99430.66;5062623;28;20357;-38
2022/05/05 12:35:38;;;;;;;;;;;;;;;28.46;40.10;99424.09;5065170;28;19966;-38
2022/05/05 12:38:03;;;;;;;;;;;;;;;27.00;39.69;99431.03;5063914;28;19923;-38
2022/05/05 12:40:29;;;;;;;;;;;;;;;27.89;37.75;99419.13;5062487;28;19917;-38
2022/05/05 12:43:01;;;;;;;;;;;;;;;28.25;35.76;99419.97;5061411;28;20966;-38
2022/05/05 12:45:29;;;;;;;;;;;;;;;27.69;36.58;99421.88;5064250;28;20603;-38
2022/05/05 12:47:54;;;;;;;;;;;;;;;29.05;36.07;99419.06;5067477;28;21016;-38
2022/05/05 12:50:36;;;;;;;;;;;;;;;29.87;34.53;99420.25;5066032;28;19920;-38
2022/05/05 13:01:22;;;;;;;;;;;;;;;30.73;32.84;99429.59;5063294;28;19932;-38
2022/05/05 13:03:47;;;;;;;;;;;;;;;27.91;34.30;99425.94;5061047;28;19970;-38
2022/05/05 13:06:13;;;;;;;;;;;;;;;28.03;35.78;99434.50;5062882;28;20011;-38
2022/05/05 13:08:38;;;;;;;;;;;;;;;29.37;33.19;99429.00;5063481;28;20600;-38
2022/05/05 13:11:03;;;;;;;;;;;;;;;29.11;31.15;99419.28;5060809;28;19920;-38
2022/05/05 13:13:28;;;;;;;;;;;;;;;29.57;33.64;99429.59;5061536;28;19950;-38
2022/05/05 13:15:54;;;;;;;;;;;;;;;27.91;32.31;99430.38;5061555;28;20363;-38
2022/05/05 13:18:19;;;;;;;;;;;;;;;26.63;36.73;99429.19;5061484;28;20385;-38
2022/05/05 13:20:44;;;;;;;;;;;;;;;29.74;36.09;99427.84;5064195;28;20819;-44
2022/05/05 13:23:10;;;;;;;;;;;;;;;28.17;34.76;99419.91;5063490;28;20459;-46
2022/05/05 13:25:35;;;;;;;;;;;;;;;28.33;34.97;99422.69;5062731;28;20459;-45
2022/05/05 13:28:01;;;;;;;;;;;;;;;29.12;33.71;99420.94;5060156;28;20341;-46
2022/05/05 13:30:27;;;;;;;;;;;;;;;28.85;33.60;99424.59;5061902;28;19920;-45
2022/05/05 13:32:52;;;;;;;;;;;;;;;26.95;35.49;99433.28;5061703;28;19926;-45
2022/05/05 13:35:18;;;;;;;;;;;;;;;27.48;37.68;99435.38;5062213;28;19923;-45
2022/05/05 13:37:43;;;;;;;;;;;;;;;28.22;35.43;99430.88;5062344;28;19955;-47
2022/05/05 13:40:09;;;;;;;;;;;;;;;28.25;33.34;99433.19;5061759;28;20810;-44